Time;durP1;ratioP1;P1;durP2;ratioP2;P2;SDS_P1;SDS_P2;PMS_P1;PMS_P2;Temp;Humidity;BMP_temperature;BMP_pressure;BME280_temperature;BME280_humidity;BME280_pressure;Samples;Min_cycle;Max_cycle;Signal;HPM_P1;HPM_P2
2021/12/08 00:03:40;;;;;;;3.35;1.55;;;16.10;66.50;;;;;;10576834;28;20019;-50
2021/12/08 00:08:59;;;;;;;2.13;1.10;;;16.00;66.40;;;;;;10559499;28;20042;-52
2021/12/08 00:14:00;;;;;;;2.78;1.48;;;16.00;66.30;;;;;;10562067;28;20028;-52
2021/12/08 00:19:00;;;;;;;2.25;1.38;;;16.00;66.50;;;;;;10576730;28;20024;-48
2021/12/08 00:24:01;;;;;;;1.92;1.50;;;16.00;66.40;;;;;;10577323;28;20027;-49
2021/12/08 00:29:04;;;;;;;2.42;1.20;;;16.00;66.30;;;;;;10576269;28;20065;-48
2021/12/08 00:34:05;;;;;;;1.85;1.10;;;16.00;66.40;;;;;;10576448;28;20467;-48
2021/12/08 00:39:06;;;;;;;2.38;1.10;;;15.90;66.30;;;;;;10558828;28;20106;-48
2021/12/08 00:44:07;;;;;;;2.78;1.30;;;15.90;66.30;;;;;;10576210;28;20039;-52
2021/12/08 00:49:09;;;;;;;1.92;1.15;;;15.90;66.30;;;;;;10579490;28;20027;-53
2021/12/08 00:54:10;;;;;;;2.53;2.00;;;15.90;66.30;;;;;;10584860;28;20024;-53
2021/12/08 00:59:11;;;;;;;2.05;1.08;;;15.90;66.30;;;;;;10548946;28;20028;-55
2021/12/08 01:04:12;;;;;;;3.70;1.70;;;15.90;66.30;;;;;;10566525;28;20108;-50
2021/12/08 01:09:16;;;;;;;2.00;1.10;;;15.90;66.30;;;;;;10583987;28;20044;-49
2021/12/08 01:14:17;;;;;;;1.95;1.30;;;15.80;66.30;;;;;;10584290;28;20012;-52
2021/12/08 01:19:18;;;;;;;2.72;1.42;;;15.80;66.30;;;;;;10584558;28;20078;-48
2021/12/08 01:24:19;;;;;;;1.58;1.00;;;15.80;66.20;;;;;;10584149;28;20527;-50
2021/12/08 01:29:20;;;;;;;2.53;1.17;;;15.80;66.20;;;;;;10565639;28;20035;-50
2021/12/08 01:34:21;;;;;;;1.83;1.20;;;15.80;66.30;;;;;;10583284;28;20425;-47
2021/12/08 01:39:21;;;;;;;2.00;1.08;;;15.80;66.20;;;;;;10551380;28;20532;-51
2021/12/08 01:49:41;;;;;;;2.15;1.00;;;15.70;66.20;;;;;;10583294;28;20043;-52
2021/12/08 01:54:42;;;;;;;2.25;0.98;;;15.70;66.20;;;;;;10582646;28;20487;-54
2021/12/08 01:59:43;;;;;;;1.92;0.98;;;15.70;66.20;;;;;;10580288;28;20036;-52
2021/12/08 02:04:44;;;;;;;1.40;0.95;;;15.70;66.30;;;;;;10582140;28;20034;-51
2021/12/08 02:09:44;;;;;;;2.60;1.10;;;15.70;66.20;;;;;;10581981;28;20098;-51
2021/12/08 02:14:45;;;;;;;1.10;0.70;;;15.70;66.10;;;;;;10580560;28;20023;-51
2021/12/08 02:19:46;;;;;;;1.55;1.02;;;15.70;66.00;;;;;;10581543;28;20039;-50
2021/12/08 02:24:50;;;;;;;1.80;1.00;;;15.70;66.00;;;;;;10563538;28;20058;-48
2021/12/08 02:30:01;;;;;;;1.00;0.88;;;15.70;66.10;;;;;;10545957;28;20024;-47
2021/12/08 02:51:02;;;;;;;1.70;0.70;;;15.70;65.90;;;;;;10565253;28;20036;-50
2021/12/08 02:56:03;;;;;;;1.35;0.70;;;15.80;65.70;;;;;;10562224;28;20062;-51
2021/12/08 03:01:07;;;;;;;2.75;1.10;;;15.80;65.70;;;;;;10561957;28;20034;-51
2021/12/08 03:06:10;;;;;;;2.50;0.80;;;15.80;65.60;;;;;;10580443;28;20028;-53
2021/12/08 03:11:11;;;;;;;1.13;0.85;;;15.80;65.60;;;;;;10561432;28;20074;-52
2021/12/08 03:16:13;;;;;;;3.10;1.00;;;15.80;65.40;;;;;;10579638;28;20048;-54
2021/12/08 03:21:14;;;;;;;1.20;0.65;;;15.80;65.40;;;;;;10578885;28;20127;-52
2021/12/08 03:26:14;;;;;;;1.33;0.90;;;15.80;65.40;;;;;;10561694;28;20114;-51
2021/12/08 03:31:19;;;;;;;0.88;0.40;;;15.90;65.20;;;;;;10560917;28;20027;-53
2021/12/08 03:36:19;;;;;;;0.93;0.60;;;15.90;65.20;;;;;;10572773;28;20472;-52
2021/12/08 03:41:20;;;;;;;1.45;0.65;;;15.90;65.20;;;;;;10553292;28;20033;-53
2021/12/08 03:46:26;;;;;;;0.90;0.52;;;15.90;65.30;;;;;;10560937;28;20047;-53
2021/12/08 03:51:27;;;;;;;1.40;0.77;;;15.80;65.30;;;;;;10560638;28;20089;-51
2021/12/08 03:56:27;;;;;;;1.45;0.90;;;15.80;65.40;;;;;;10578401;28;20020;-48
2021/12/08 04:01:28;;;;;;;1.25;0.80;;;15.80;65.30;;;;;;10555019;28;20075;-49
2021/12/08 04:06:33;;;;;;;1.60;0.73;;;15.90;65.20;;;;;;10560382;28;20019;-48
2021/12/08 04:11:33;;;;;;;0.93;0.57;;;15.90;65.20;;;;;;10577766;28;20020;-53
2021/12/08 04:16:50;;;;;;;2.30;0.82;;;15.90;65.20;;;;;;10559564;28;20028;-48
2021/12/08 04:21:54;;;;;;;1.70;0.70;;;15.80;65.10;;;;;;10560527;28;20032;-48
2021/12/08 04:27:08;;;;;;;1.38;0.77;;;15.80;65.20;;;;;;10567707;28;20034;-49
2021/12/08 04:32:16;;;;;;;2.00;0.85;;;15.80;65.20;;;;;;10586309;28;20067;-52
2021/12/08 04:37:25;;;;;;;1.45;0.60;;;15.90;65.10;;;;;;10572318;28;20024;-50
2021/12/08 04:42:49;;;;;;;;;;;15.80;65.00;;;;;;10586653;28;20239;-53
2021/12/08 04:48:19;;;;;;;2.30;0.73;;;15.90;65.00;;;;;;10584593;28;19920;-49
2021/12/08 05:09:17;;;;;;;1.02;0.57;;;15.90;64.90;;;;;;10567373;28;20567;-52
2021/12/08 05:15:06;;;;;;;1.73;0.55;;;15.90;64.80;;;;;;10567215;28;20483;-48
2021/12/08 05:20:44;;;;;;;1.15;0.50;;;15.90;65.40;;;;;;10567551;28;20476;-48
2021/12/08 05:25:46;;;;;;;1.27;0.50;;;15.90;64.80;;;;;;10584420;28;20497;-52
2021/12/08 05:31:13;;;;;;;1.13;0.70;;;15.90;64.90;;;;;;10583245;28;20027;-51
2021/12/08 05:36:15;;;;;;;2.22;0.55;;;15.90;64.70;;;;;;10565552;28;20020;-49
2021/12/08 05:41:23;;;;;;;0.98;0.60;;;15.90;64.60;;;;;;10564885;28;20024;-53
2021/12/08 05:46:29;;;;;;;1.02;0.63;;;16.00;64.20;;;;;;10580240;28;20434;-52
2021/12/08 05:51:35;;;;;;;0.95;0.65;;;16.20;63.90;;;;;;10581871;28;20047;-50
2021/12/08 05:56:36;;;;;;;1.35;0.50;;;16.30;63.40;;;;;;10582975;28;20475;-52
2021/12/08 06:01:55;;;;;;;1.13;0.65;;;16.40;63.10;;;;;;10577179;28;20032;-53
2021/12/08 06:06:57;;;;;;;4.40;0.70;;;16.50;62.80;;;;;;10564838;28;20031;-48
2021/12/08 06:12:00;;;;;;;3.80;0.50;;;16.60;63.10;;;;;;10578356;28;20597;-51
2021/12/08 06:17:10;;;;;;;6.38;1.17;;;16.70;63.90;;;;;;10577950;28;20032;-53
2021/12/08 06:22:13;;;;;;;6.75;1.15;;;16.80;63.40;;;;;;10583982;28;20039;-53
2021/12/08 06:27:14;;;;;;;5.38;1.17;;;16.90;63.50;;;;;;10565735;28;20024;-52
2021/12/08 06:32:16;;;;;;;7.50;1.27;;;16.90;63.50;;;;;;10564490;28;20051;-52
2021/12/08 06:37:29;;;;;;;3.28;1.20;;;16.90;63.40;;;;;;10562790;28;20027;-52
2021/12/08 06:42:35;;;;;;;8.95;1.45;;;17.00;64.20;;;;;;10580130;28;20051;-51
2021/12/08 06:47:38;;;;;;;12.20;1.20;;;17.00;63.60;;;;;;10581372;28;20054;-54
2021/12/08 06:52:40;;;;;;;7.70;1.40;;;17.10;63.50;;;;;;10582048;28;20032;-53
2021/12/08 06:57:56;;;;;;;11.07;1.40;;;17.20;63.60;;;;;;10563460;28;20534;-50
2021/12/08 07:08:16;;;;;;;11.70;2.78;;;17.30;63.30;;;;;;10562283;28;20431;-54
2021/12/08 07:13:25;;;;;;;11.90;2.05;;;17.20;63.50;;;;;;10562947;28;20027;-52
2021/12/08 07:18:40;;;;;;;11.43;3.00;;;17.20;63.40;;;;;;10563943;28;20034;-53
2021/12/08 07:23:49;;;;;;;15.38;2.35;;;17.20;62.50;;;;;;10563389;28;20380;-51
2021/12/08 07:28:52;;;;;;;7.97;2.22;;;17.40;62.10;;;;;;10544388;28;20024;-53
2021/12/08 07:33:54;;;;;;;7.05;1.90;;;17.40;62.00;;;;;;10557271;28;20111;-52
2021/12/08 07:38:59;;;;;;;8.90;1.83;;;17.40;61.70;;;;;;10560718;28;20031;-49
2021/12/08 07:44:08;;;;;;;6.97;1.42;;;17.50;61.40;;;;;;10579990;28;20043;-52
2021/12/08 07:49:16;;;;;;;6.53;1.50;;;17.60;61.00;;;;;;10562892;28;20035;-55
2021/12/08 07:54:19;;;;;;;7.78;2.45;;;17.60;60.80;;;;;;10562737;28;20420;-51
2021/12/08 07:59:22;;;;;;;5.10;1.70;;;17.60;60.80;;;;;;10579574;28;20028;-50
2021/12/08 08:04:26;;;;;;;10.15;1.70;;;17.70;60.60;;;;;;10558575;28;20015;-49
2021/12/08 08:09:37;;;;;;;5.15;1.30;;;17.60;60.50;;;;;;10564814;28;20024;-52
2021/12/08 08:14:56;;;;;;;7.05;1.63;;;17.70;60.40;;;;;;10561254;28;20011;-53
2021/12/08 08:19:58;;;;;;;10.77;2.00;;;17.60;60.70;;;;;;10563501;28;20059;-65
2021/12/08 08:25:05;;;;;;;9.43;2.15;;;17.80;60.30;;;;;;10561056;28;20051;-64
2021/12/08 08:30:18;;;;;;;14.75;2.28;;;17.80;60.30;;;;;;10558406;28;20114;-65
2021/12/08 08:35:32;;;;;;;13.60;2.13;;;18.00;60.20;;;;;;10561486;28;20105;-65
2021/12/08 08:40:49;;;;;;;13.00;1.90;;;17.90;60.20;;;;;;10557585;28;20035;-62
2021/12/08 08:46:08;;;;;;;7.00;2.10;;;18.00;60.30;;;;;;10561685;28;20655;-57
2021/12/08 08:51:35;;;;;;;11.02;1.83;;;17.90;60.60;;;;;;10561082;28;20024;-60
2021/12/08 08:56:45;;;;;;;13.68;2.10;;;18.00;60.20;;;;;;10550941;28;20027;-60
2021/12/08 09:01:53;;;;;;;15.70;2.20;;;18.00;60.00;;;;;;10561078;28;20074;-60
2021/12/08 09:07:02;;;;;;;14.23;2.25;;;18.00;60.00;;;;;;10557846;28;20475;-58
2021/12/08 09:12:29;;;;;;;9.77;2.20;;;18.00;60.10;;;;;;10582464;28;20365;-60
2021/12/08 09:17:37;;;;;;;6.80;1.65;;;17.90;59.30;;;;;;10555226;28;20023;-60
2021/12/08 09:22:55;;;;;;;8.45;1.48;;;18.00;59.20;;;;;;10564871;28;20020;-60
2021/12/08 09:28:06;;;;;;;12.07;1.80;;;18.10;59.00;;;;;;10566010;28;20062;-61
2021/12/08 09:33:17;;;;;;;7.88;1.90;;;18.10;59.10;;;;;;10583387;28;20031;-60
2021/12/08 09:38:55;;;;;;;6.00;1.65;;;18.20;59.00;;;;;;10555777;28;20035;-59
2021/12/08 09:44:03;;;;;;;7.00;1.75;;;18.10;59.00;;;;;;10543767;28;20702;-60
2021/12/08 09:49:06;;;;;;;5.85;1.65;;;18.10;58.80;;;;;;10554647;28;20031;-61
2021/12/08 09:54:07;;;;;;;8.75;1.67;;;18.10;58.90;;;;;;10574582;28;20081;-60
2021/12/08 09:59:09;;;;;;;7.13;1.73;;;18.20;58.70;;;;;;10563108;28;20028;-60
2021/12/08 10:04:12;;;;;;;6.25;1.63;;;18.10;59.50;;;;;;10559128;28;20127;-60
2021/12/08 10:09:13;;;;;;;9.18;1.40;;;18.10;58.90;;;;;;10553460;28;20483;-61
2021/12/08 10:14:15;;;;;;;3.00;1.05;;;18.10;59.00;;;;;;10564277;28;20036;-62
2021/12/08 10:19:17;;;;;;;3.38;1.63;;;18.00;59.70;;;;;;10559952;28;20035;-60
2021/12/08 10:24:24;;;;;;;3.55;1.02;;;18.00;59.20;;;;;;10556325;28;20022;-60
2021/12/08 10:29:31;;;;;;;3.92;1.23;;;18.00;59.40;;;;;;10555114;28;20467;-61
2021/12/08 10:34:46;;;;;;;5.47;1.00;;;18.00;60.20;;;;;;10564023;28;20031;-60
2021/12/08 10:39:52;;;;;;;2.28;0.85;;;18.00;59.70;;;;;;10555139;28;20114;-60
2021/12/08 10:45:10;;;;;;;2.75;0.70;;;18.00;59.60;;;;;;10554794;28;20523;-61
2021/12/08 10:55:53;;;;;;;4.55;1.20;;;18.10;59.90;;;;;;10569018;28;20032;-61
2021/12/08 11:00:57;;;;;;;3.28;0.77;;;18.20;59.80;;;;;;10563197;28;20027;-61
2021/12/08 11:06:01;;;;;;;5.95;0.90;;;18.20;59.70;;;;;;10546139;28;20453;-61
2021/12/08 11:11:32;;;;;;;2.13;0.88;;;18.30;59.80;;;;;;10562166;28;20035;-60
2021/12/08 11:16:38;;;;;;;3.08;0.73;;;18.30;59.50;;;;;;10562322;28;20114;-61
2021/12/08 11:21:47;;;;;;;3.17;0.90;;;18.40;59.00;;;;;;10555625;28;20054;-61
2021/12/08 11:26:51;;;;;;;3.28;0.95;;;18.50;59.00;;;;;;10558552;28;20483;-62
2021/12/08 11:32:00;;;;;;;2.58;0.85;;;18.50;58.90;;;;;;10557807;28;20040;-61
2021/12/08 11:37:15;;;;;;;3.95;0.70;;;18.50;58.70;;;;;;10550152;28;20123;-60
2021/12/08 11:42:21;;;;;;;1.95;0.80;;;18.50;58.60;;;;;;10560998;28;20432;-61
2021/12/08 11:47:33;;;;;;;2.22;0.82;;;18.60;58.70;;;;;;10557044;28;20415;-59
2021/12/08 11:52:33;;;;;;;3.53;0.95;;;18.40;58.90;;;;;;10559523;28;20066;-60
2021/12/08 11:57:46;;;;;;;5.22;1.00;;;18.60;58.90;;;;;;10544401;28;20032;-63
2021/12/08 12:03:02;;;;;;;4.90;1.00;;;18.60;59.90;;;;;;10577866;28;20033;-62
2021/12/08 12:08:05;;;;;;;5.95;1.67;;;18.50;61.20;;;;;;10559718;28;20028;-60
2021/12/08 12:13:10;;;;;;;3.05;0.80;;;18.70;61.20;;;;;;10553757;28;20413;-61
2021/12/08 12:18:11;;;;;;;4.95;1.00;;;18.80;61.50;;;;;;10561999;28;20023;-62
2021/12/08 12:24:14;;;;;;;4.07;1.10;;;18.70;61.70;;;;;;10559134;28;20020;-60
2021/12/08 12:30:01;;;;;;;5.68;1.05;;;18.70;61.20;;;;;;10577245;28;20122;-58
2021/12/08 12:35:31;;;;;;;7.32;1.38;;;18.60;61.30;;;;;;10550063;28;20115;-58
2021/12/08 12:40:43;;;;;;;8.43;1.98;;;18.50;61.50;;;;;;10553563;28;20032;-58
2021/12/08 12:45:44;;;;;;;6.25;1.48;;;18.50;62.20;;;;;;10564226;28;20046;-57
2021/12/08 12:51:19;;;;;;;9.80;1.70;;;18.60;61.60;;;;;;10561517;28;20038;-58
2021/12/08 12:56:34;;;;;;;12.70;2.13;;;18.60;60.70;;;;;;10583131;28;20046;-58
2021/12/08 13:01:43;;;;;;;7.07;1.00;;;18.70;60.40;;;;;;10580789;28;20425;-58
2021/12/08 13:06:52;;;;;;;5.33;1.10;;;18.70;60.30;;;;;;10574154;28;20027;-58
2021/12/08 13:12:27;;;;;;;6.95;1.33;;;18.70;60.00;;;;;;10585910;28;20085;-59
2021/12/08 13:17:27;;;;;;;10.93;1.85;;;18.60;60.30;;;;;;10581617;28;20027;-59
2021/12/08 13:22:52;;;;;;;10.82;1.58;;;18.60;60.60;;;;;;10567759;28;20028;-52
2021/12/08 13:28:06;;;;;;;15.75;2.42;;;18.70;61.00;;;;;;10566450;28;20427;-55
2021/12/08 13:33:43;;;;;;;13.00;2.13;;;18.80;60.40;;;;;;10567854;28;20250;-55
2021/12/08 13:38:44;;;;;;;11.95;2.13;;;18.80;60.80;;;;;;10579013;28;20064;-56
2021/12/08 13:43:49;;;;;;;20.80;1.70;;;18.80;60.80;;;;;;10564746;28;20030;-53
2021/12/08 13:49:13;;;;;;;22.30;3.50;;;18.90;60.80;;;;;;10565809;28;20498;-56
2021/12/08 13:54:55;;;;;;;9.45;2.00;;;18.80;61.10;;;;;;10565931;28;20415;-55
2021/12/08 14:00:10;;;;;;;13.57;2.65;;;18.90;60.50;;;;;;10557914;28;20063;-57
2021/12/08 14:05:31;;;;;;;22.75;2.47;;;18.80;60.60;;;;;;10583023;28;20024;-52
2021/12/08 14:10:40;;;;;;;18.23;2.25;;;18.90;60.80;;;;;;10582179;28;20027;-56
2021/12/08 14:15:40;;;;;;;17.08;2.35;;;18.80;60.50;;;;;;10562574;28;20026;-56
2021/12/08 14:20:53;;;;;;;11.30;2.30;;;19.00;60.00;;;;;;10581688;28;20037;-55
2021/12/08 14:26:02;;;;;;;15.98;2.40;;;19.00;60.20;;;;;;10563108;28;20019;-55
2021/12/08 14:31:03;;;;;;;20.17;3.08;;;18.80;60.40;;;;;;10563965;28;20031;-54
2021/12/08 14:36:08;;;;;;;17.42;3.00;;;18.70;60.80;;;;;;10578804;28;20395;-55
2021/12/08 14:41:24;;;;;;;17.95;2.70;;;18.90;60.20;;;;;;10562943;28;20117;-54
2021/12/08 14:46:25;;;;;;;26.60;2.90;;;18.80;60.40;;;;;;10561007;28;20056;-56
2021/12/08 14:51:27;;;;;;;18.35;2.30;;;18.90;60.00;;;;;;10543784;28;20119;-56
2021/12/08 14:56:32;;;;;;;13.75;2.80;;;18.80;60.60;;;;;;10560550;28;20028;-55
2021/12/08 15:01:34;;;;;;;12.43;3.08;;;18.90;60.80;;;;;;10578625;28;20440;-56
2021/12/08 15:06:35;;;;;;;15.70;1.70;;;18.90;60.20;;;;;;10561510;28;20551;-54
2021/12/08 15:11:40;;;;;;;12.95;1.98;;;18.90;60.00;;;;;;10545094;28;20030;-57
2021/12/08 15:16:56;;;;;;;7.55;2.17;;;18.80;60.20;;;;;;10579941;28;20023;-56
2021/12/08 15:22:06;;;;;;;19.58;2.60;;;18.90;59.90;;;;;;10562905;28;20032;-55
2021/12/08 15:27:14;;;;;;;14.93;2.00;;;18.70;59.90;;;;;;10580256;28;20031;-55
2021/12/08 15:32:16;;;;;;;12.38;2.33;;;18.80;59.40;;;;;;10560952;28;20441;-54
2021/12/08 15:37:17;;;;;;;9.75;1.55;;;18.70;58.80;;;;;;10560743;28;20028;-54
2021/12/08 15:42:18;;;;;;;10.18;2.13;;;18.80;59.10;;;;;;10577968;28;20127;-52
2021/12/08 15:47:19;;;;;;;8.15;1.40;;;18.70;59.20;;;;;;10561990;28;20094;-55
2021/12/08 15:52:23;;;;;;;8.52;3.00;;;18.80;59.00;;;;;;10577706;28;20034;-55
2021/12/08 15:57:24;;;;;;;9.80;1.90;;;18.70;59.10;;;;;;10580041;28;20055;-55
2021/12/08 16:02:28;;;;;;;8.98;1.80;;;18.80;58.90;;;;;;10578935;28;20118;-53
2021/12/08 16:07:31;;;;;;;6.97;1.40;;;18.80;59.10;;;;;;10577911;28;20479;-55
2021/12/08 16:12:32;;;;;;;10.60;1.30;;;18.80;59.00;;;;;;10559686;28;20539;-55
2021/12/08 16:17:36;;;;;;;9.40;2.50;;;18.70;59.00;;;;;;10576589;28;20026;-57
2021/12/08 16:22:38;;;;;;;9.63;1.95;;;18.60;58.10;;;;;;10558376;28;20039;-56
2021/12/08 16:27:39;;;;;;;12.10;2.30;;;18.60;58.90;;;;;;10545900;28;20032;-55
2021/12/08 16:32:40;;;;;;;6.53;2.33;;;18.60;58.90;;;;;;10559392;28;20028;-55
2021/12/08 16:37:41;;;;;;;6.43;1.73;;;18.50;59.20;;;;;;10555083;28;20471;-53
2021/12/08 16:43:00;;;;;;;9.88;1.70;;;18.50;58.90;;;;;;10576256;28;20380;-52
2021/12/08 16:48:06;;;;;;;6.07;1.48;;;18.40;58.30;;;;;;10574717;28;20123;-53
2021/12/08 16:53:10;;;;;;;6.63;1.50;;;18.40;57.90;;;;;;10573820;28;20061;-52
2021/12/08 16:58:11;;;;;;;8.63;1.70;;;18.30;57.70;;;;;;10577964;28;20073;-52
2021/12/08 17:03:15;;;;;;;7.95;3.15;;;18.30;57.20;;;;;;10578206;28;20139;-53
2021/12/08 17:08:17;;;;;;;11.52;3.10;;;18.30;58.00;;;;;;10558639;28;20433;-52
2021/12/08 17:13:20;;;;;;;11.05;3.15;;;18.50;60.40;;;;;;10558573;28;20109;-52
2021/12/08 17:18:21;;;;;;;10.32;2.90;;;18.70;60.50;;;;;;10577387;28;20032;-52
2021/12/08 17:23:22;;;;;;;10.63;2.70;;;18.80;61.40;;;;;;10576630;28;20020;-48
2021/12/08 17:28:23;;;;;;;12.18;3.03;;;18.80;61.60;;;;;;10558249;28;20031;-54
2021/12/08 17:33:24;;;;;;;8.13;1.92;;;18.80;61.60;;;;;;10582045;28;20031;-52
2021/12/08 17:38:25;;;;;;;7.95;2.30;;;18.80;61.80;;;;;;10551870;28;20487;-52
2021/12/08 17:43:28;;;;;;;9.13;2.53;;;18.70;61.60;;;;;;10583239;28;20076;-49
2021/12/08 17:48:31;;;;;;;8.73;2.42;;;18.70;61.40;;;;;;10580277;28;20039;-53
2021/12/08 17:53:33;;;;;;;9.18;1.98;;;18.70;61.50;;;;;;10582219;28;20024;-54
2021/12/08 17:58:37;;;;;;;7.88;2.38;;;18.80;62.00;;;;;;10582251;28;20036;-54
2021/12/08 18:03:38;;;;;;;12.23;2.88;;;18.70;61.40;;;;;;10581901;28;20027;-50
2021/12/08 18:08:38;;;;;;;9.60;2.10;;;18.70;61.30;;;;;;10562278;28;20023;-53
2021/12/08 18:13:39;;;;;;;9.15;2.20;;;18.70;61.70;;;;;;10561705;28;20024;-49
2021/12/08 18:18:40;;;;;;;6.53;1.77;;;18.70;61.40;;;;;;10563216;28;20496;-54
2021/12/08 18:23:41;;;;;;;7.28;2.15;;;18.60;61.30;;;;;;10561563;28;20076;-55
2021/12/08 18:28:43;;;;;;;7.72;1.95;;;18.60;61.20;;;;;;10578229;28;20036;-51
2021/12/08 18:33:47;;;;;;;7.05;2.28;;;18.60;61.30;;;;;;10560688;28;20036;-55
2021/12/08 18:38:50;;;;;;;8.48;2.20;;;18.60;61.20;;;;;;10546843;28;20170;-54
2021/12/08 18:43:53;;;;;;;9.77;2.30;;;18.60;61.90;;;;;;10516006;28;1068922;-51
2021/12/08 18:48:55;;;;;;;5.60;1.80;;;18.60;61.90;;;;;;10555722;28;20023;-53
2021/12/08 18:53:59;;;;;;;5.53;1.80;;;18.70;61.60;;;;;;10546832;28;20074;-48
2021/12/08 18:59:00;;;;;;;6.40;2.00;;;18.80;61.40;;;;;;10522521;28;20530;-51
2021/12/08 19:04:04;;;;;;;4.63;1.75;;;18.80;61.20;;;;;;10525255;28;20387;-52
2021/12/08 19:09:09;;;;;;;6.93;2.67;;;18.80;61.40;;;;;;10524553;28;20121;-52
2021/12/08 19:14:09;;;;;;;5.93;2.10;;;18.80;61.20;;;;;;10528759;28;20077;-49
2021/12/08 19:19:10;;;;;;;6.10;1.92;;;18.80;61.50;;;;;;10522535;28;20078;-52
2021/12/08 19:24:12;;;;;;;4.80;1.75;;;18.80;61.30;;;;;;10538768;28;20024;-52
2021/12/08 19:29:14;;;;;;;6.07;2.00;;;18.80;61.40;;;;;;10550586;28;20111;-54
2021/12/08 19:34:16;;;;;;;7.03;1.70;;;18.90;61.40;;;;;;10554043;28;20032;-54
2021/12/08 19:39:18;;;;;;;3.67;1.50;;;18.80;61.70;;;;;;10532011;28;20024;-55
2021/12/08 19:44:19;;;;;;;5.97;1.70;;;18.90;61.60;;;;;;10559365;28;20118;-53
2021/12/08 19:49:20;;;;;;;6.78;1.90;;;18.80;61.60;;;;;;10554425;28;20107;-55
2021/12/08 19:54:22;;;;;;;2.63;1.52;;;18.90;61.60;;;;;;10553107;28;20059;-54
2021/12/08 19:59:25;;;;;;;6.18;1.92;;;18.80;61.60;;;;;;10560125;28;20024;-55
2021/12/08 20:04:28;;;;;;;3.17;1.60;;;18.90;61.50;;;;;;10543295;28;20024;-54
2021/12/08 20:09:29;;;;;;;4.57;2.03;;;18.80;61.70;;;;;;10578319;28;20023;-55
2021/12/08 20:14:30;;;;;;;2.75;1.70;;;18.60;62.20;;;;;;10577884;28;20035;-55
2021/12/08 20:19:31;;;;;;;3.08;1.77;;;18.50;62.60;;;;;;10544804;28;20027;-55
2021/12/08 20:24:33;;;;;;;4.43;1.50;;;18.30;62.90;;;;;;10567982;28;20122;-52
2021/12/08 20:29:33;;;;;;;4.18;1.90;;;18.10;63.30;;;;;;10549585;28;20023;-53
2021/12/08 20:34:36;;;;;;;2.28;1.52;;;18.00;63.80;;;;;;10553756;28;20047;-51
2021/12/08 20:39:37;;;;;;;4.95;2.03;;;17.80;64.20;;;;;;10560967;28;20108;-51
2021/12/08 20:44:37;;;;;;;4.85;1.70;;;17.70;64.50;;;;;;10578748;28;20360;-53
2021/12/08 20:49:38;;;;;;;4.90;1.63;;;17.60;64.80;;;;;;10544021;28;20035;-53
2021/12/08 20:54:39;;;;;;;3.28;1.58;;;17.50;64.90;;;;;;10561173;28;20028;-51
2021/12/08 20:59:51;;;;;;;4.68;1.83;;;17.40;65.10;;;;;;10560478;28;20149;-54
2021/12/08 21:04:52;;;;;;;3.30;1.40;;;17.30;65.10;;;;;;10563365;28;20028;-53
2021/12/08 21:09:53;;;;;;;5.80;2.00;;;17.20;65.30;;;;;;10568310;28;20024;-51
2021/12/08 21:14:54;;;;;;;4.07;1.70;;;17.20;65.40;;;;;;10567983;28;20098;-54
2021/12/08 21:19:54;;;;;;;2.88;1.58;;;17.10;65.20;;;;;;10586392;28;20106;-54
2021/12/08 21:24:55;;;;;;;2.72;1.40;;;17.10;65.30;;;;;;10567734;28;20447;-52
2021/12/08 21:29:56;;;;;;;2.58;1.45;;;17.00;65.20;;;;;;10567533;28;20121;-53
2021/12/08 21:35:00;;;;;;;2.90;1.42;;;17.00;65.30;;;;;;10567369;28;20403;-51
2021/12/08 21:40:01;;;;;;;2.35;1.30;;;16.90;65.30;;;;;;10553477;28;20034;-54
2021/12/08 21:45:03;;;;;;;2.75;1.52;;;16.90;65.30;;;;;;10567141;28;20054;-54
2021/12/08 21:50:08;;;;;;;3.35;1.88;;;16.90;65.40;;;;;;10567030;28;20038;-53
2021/12/08 21:55:12;;;;;;;2.88;1.60;;;16.80;65.30;;;;;;10567241;28;20445;-54
2021/12/08 22:00:18;;;;;;;3.30;1.38;;;16.80;65.40;;;;;;10566739;28;20076;-52
2021/12/08 22:05:21;;;;;;;3.60;1.90;;;16.70;65.30;;;;;;10584491;28;20027;-54
2021/12/08 22:10:25;;;;;;;3.65;2.08;;;16.70;65.40;;;;;;10566405;28;20148;-54
2021/12/08 22:15:27;;;;;;;3.35;1.33;;;16.60;65.30;;;;;;10566087;28;20027;-53
2021/12/08 22:20:28;;;;;;;3.60;1.58;;;16.60;65.40;;;;;;10548835;28;20540;-54
2021/12/08 22:25:29;;;;;;;2.00;1.38;;;16.60;65.30;;;;;;10583693;28;20076;-54
2021/12/08 22:30:30;;;;;;;3.60;1.65;;;16.50;65.30;;;;;;10565118;28;20089;-54
2021/12/08 22:35:31;;;;;;;3.10;1.50;;;16.50;65.40;;;;;;10565078;28;20020;-54
2021/12/08 22:40:33;;;;;;;3.15;1.70;;;16.50;65.30;;;;;;10564863;28;20024;-54
2021/12/08 22:45:35;;;;;;;3.15;1.50;;;16.40;65.50;;;;;;10564652;28;20058;-54
2021/12/08 22:50:41;;;;;;;2.63;1.48;;;16.40;65.50;;;;;;10564635;28;20035;-53
2021/12/08 22:55:42;;;;;;;2.92;1.48;;;16.40;65.60;;;;;;10582175;28;20023;-53
2021/12/08 23:01:04;;;;;;;3.72;1.55;;;16.40;65.50;;;;;;10582037;28;20399;-54
2021/12/08 23:06:07;;;;;;;2.30;1.10;;;16.30;65.50;;;;;;10564065;28;20118;-54
2021/12/08 23:11:16;;;;;;;3.72;1.52;;;16.30;65.50;;;;;;10563441;28;20110;-54
2021/12/08 23:16:18;;;;;;;2.33;1.30;;;16.30;65.60;;;;;;10564181;28;20122;-53
2021/12/08 23:21:23;;;;;;;2.60;1.40;;;16.30;65.60;;;;;;10563282;28;20031;-52
2021/12/08 23:26:25;;;;;;;3.17;1.70;;;16.20;65.50;;;;;;10563639;28;20059;-53
2021/12/08 23:31:29;;;;;;;2.70;1.60;;;16.20;65.60;;;;;;10562561;28;20040;-54
2021/12/08 23:36:43;;;;;;;2.53;1.38;;;16.20;65.60;;;;;;10562749;28;20486;-54
2021/12/08 23:41:47;;;;;;;2.30;1.20;;;16.20;65.60;;;;;;10564218;28;20037;-53
2021/12/08 23:46:48;;;;;;;2.95;1.52;;;16.10;65.50;;;;;;10561826;28;20067;-53
2021/12/08 23:51:48;;;;;;;2.92;1.40;;;16.10;65.40;;;;;;10580089;28;20039;-55
2021/12/08 23:56:51;;;;;;;2.20;1.55;;;16.10;65.50;;;;;;10561682;28;20418;-53
